KNQA/NQA METAR and TAF weather

Enter ICAO airport designator
Station Type Date Time Source
KNQA METAR 2022/09/26 08:55 UTC NOAA

KNQA 260855Z AUTO 33003KT 10SM 14/12 A2997 RMK A01


Station Type Date Time Source
KNQA Decoded METAR 2022/09/26 08:55 UTC NOAA

Millington, Millington Municipal Airport, TN, United States (KNQA) 35-21-24N 089-52-13W
Sep 26, 2022 - 04:55 AM EDT / 2022.09.26 0855 UTC
Wind: from the NNW (330 degrees) at 3 MPH (3 KT):0
Visibility: 10 mile(s):0
Temperature: 57 F (14 C)
Dew Point: 53 F (12 C)
Relative Humidity: 87%
Pressure (altimeter): 29.97 in. Hg (1014 hPa)
ob: KNQA 260855Z AUTO 33003KT 10SM 14/12 A2997 RMK A01
cycle: 9

Station Type Date Time Source
KNQA TAF UTC NOAA

Error!

Example: see airport list